Time;durP1;ratioP1;P1;durP2;ratioP2;P2;SDS_P1;SDS_P2;PMS_P1;PMS_P2;Temp;Humidity;BMP_temperature;BMP_pressure;BME280_temperature;BME280_humidity;BME280_pressure;Samples;Min_cycle;Max_cycle;Signal;HPM_P1;HPM_P2
2022/12/25 05:03:34;;;;;;;2.08;1.98;;;8.80;99.90;;;;;;6119986;23;20207;31
2022/12/25 05:06:01;;;;;;;3.15;1.88;;;8.80;99.90;;;;;;4935043;29;20224;-72
2022/12/25 05:08:31;;;;;;;2.90;2.25;;;8.80;99.90;;;;;;4937555;29;20221;-71
2022/12/25 05:10:57;;;;;;;2.95;2.67;;;8.80;99.90;;;;;;4936241;29;20646;-72
2022/12/25 05:13:23;;;;;;;2.30;2.10;;;8.80;99.90;;;;;;4937618;29;20173;-72
2022/12/25 05:15:49;;;;;;;2.40;2.25;;;8.80;99.90;;;;;;4955410;29;20977;-72
2022/12/25 05:18:14;;;;;;;2.50;2.30;;;8.80;99.90;;;;;;4956334;29;20260;-72
2022/12/25 05:20:40;;;;;;;3.90;2.90;;;8.80;99.90;;;;;;4956325;29;20181;-72
2022/12/25 05:23:07;;;;;;;2.20;1.93;;;8.80;99.90;;;;;;4956152;29;20235;-72
2022/12/25 05:25:33;;;;;;;2.20;2.10;;;8.70;99.90;;;;;;4956358;28;20252;-72
2022/12/25 05:27:58;;;;;;;2.37;2.27;;;8.70;99.90;;;;;;4956351;29;20184;-72
2022/12/25 05:30:24;;;;;;;2.10;2.00;;;8.70;99.90;;;;;;4939230;29;20247;-73
2022/12/25 05:32:49;;;;;;;2.00;1.90;;;8.70;99.90;;;;;;4955745;29;20180;-72
2022/12/25 05:35:15;;;;;;;2.13;2.03;;;8.70;99.90;;;;;;4955218;28;20271;-72
2022/12/25 05:37:41;;;;;;;2.33;2.03;;;8.70;99.90;;;;;;4956158;29;20176;-72
2022/12/25 05:40:07;;;;;;;2.53;2.33;;;8.70;99.90;;;;;;4956092;29;20257;-72
2022/12/25 05:42:33;;;;;;;2.08;1.98;;;8.70;99.90;;;;;;4938781;29;20701;-72
2022/12/25 05:44:58;;;;;;;2.00;1.90;;;8.70;99.90;;;;;;4954569;28;20200;-71
2022/12/25 05:47:24;;;;;;;6.67;2.07;;;8.70;99.90;;;;;;4955743;29;20408;-72
2022/12/25 05:49:49;;;;;;;3.00;2.80;;;8.70;99.90;;;;;;4955988;29;20188;-71
2022/12/25 05:52:15;;;;;;;1.97;1.87;;;8.70;99.90;;;;;;4955782;29;20180;-72
2022/12/25 05:54:41;;;;;;;1.83;1.73;;;8.70;99.90;;;;;;4955401;28;20673;-72
2022/12/25 05:57:06;;;;;;;1.50;1.40;;;8.70;99.90;;;;;;4938478;29;20188;-72
2022/12/25 05:59:32;;;;;;;2.00;1.83;;;8.80;99.90;;;;;;4937707;29;20189;-73
2022/12/25 06:01:58;;;;;;;1.65;1.55;;;8.70;99.90;;;;;;4955606;29;20267;-72
2022/12/25 06:04:25;;;;;;;1.80;1.70;;;8.80;99.90;;;;;;4955190;28;20203;-72
2022/12/25 06:06:51;;;;;;;1.90;1.67;;;8.80;99.90;;;;;;4955448;29;20239;-71
2022/12/25 06:09:17;;;;;;;4.97;1.70;;;8.80;99.90;;;;;;4955716;29;20169;-72
2022/12/25 06:11:42;;;;;;;3.03;2.00;;;8.80;99.90;;;;;;4955735;29;20416;-72
2022/12/25 06:14:13;;;;;;;2.40;2.17;;;8.80;99.90;;;;;;4937950;29;20228;-71
2022/12/25 06:16:38;;;;;;;2.28;1.73;;;8.80;99.90;;;;;;4955612;29;20204;-72
2022/12/25 06:19:04;;;;;;;2.00;1.80;;;8.80;99.90;;;;;;4955679;29;20574;-72
2022/12/25 06:21:30;;;;;;;2.65;2.47;;;8.80;99.90;;;;;;4955509;29;20231;-72
2022/12/25 06:23:58;;;;;;;1.97;1.87;;;8.80;99.90;;;;;;4955136;28;20185;-73
2022/12/25 06:26:23;;;;;;;2.20;2.00;;;8.90;99.90;;;;;;4955738;29;20347;-72
2022/12/25 06:28:49;;;;;;;2.70;1.77;;;8.80;99.90;;;;;;4938660;29;20200;-73
2022/12/25 06:31:17;;;;;;;1.88;1.77;;;8.80;99.90;;;;;;4955915;29;20638;-72
2022/12/25 06:33:43;;;;;;;1.98;1.85;;;8.80;99.90;;;;;;4955263;28;20208;-72
2022/12/25 06:36:28;;;;;;;1.93;1.83;;;8.80;99.90;;;;;;4955554;29;20172;-72
2022/12/25 06:38:54;;;;;;;2.92;2.50;;;8.80;99.90;;;;;;4955577;29;20408;-72
2022/12/25 06:41:24;;;;;;;2.70;2.50;;;8.80;99.90;;;;;;4955410;29;20705;-73
2022/12/25 06:43:52;;;;;;;2.53;2.40;;;8.80;99.90;;;;;;4955316;28;20201;-72
2022/12/25 06:46:19;;;;;;;2.08;1.98;;;8.80;99.90;;;;;;4955825;29;20268;-72
2022/12/25 06:48:48;;;;;;;1.90;1.80;;;8.80;99.90;;;;;;4956289;29;20168;-71
2022/12/25 06:51:25;;;;;;;2.00;1.90;;;8.80;99.90;;;;;;4955330;29;20205;-72
2022/12/25 06:53:51;;;;;;;2.20;2.00;;;8.80;99.90;;;;;;4955123;28;20689;-72
2022/12/25 06:56:20;;;;;;;2.38;2.03;;;8.80;99.90;;;;;;4950533;29;20185;-71
2022/12/25 06:58:57;;;;;;;2.67;2.05;;;8.80;99.90;;;;;;4949122;29;20177;-72
2022/12/25 07:01:28;;;;;;;3.88;2.05;;;8.80;99.90;;;;;;4944416;29;20259;-74
2022/12/25 07:03:57;;;;;;;4.45;2.55;;;8.80;99.90;;;;;;4948786;29;20185;-72
2022/12/25 07:06:23;;;;;;;3.83;2.40;;;8.80;99.90;;;;;;4946803;29;20288;-72
2022/12/25 07:08:49;;;;;;;2.43;2.23;;;8.80;99.90;;;;;;4949633;29;20177;-71
2022/12/25 07:11:14;;;;;;;2.53;2.33;;;8.80;99.90;;;;;;4945689;29;20539;-72
2022/12/25 07:13:40;;;;;;;2.83;2.30;;;8.90;99.90;;;;;;4948581;29;20223;-71
2022/12/25 07:16:06;;;;;;;2.80;2.60;;;8.90;99.90;;;;;;4949901;29;20173;-72
2022/12/25 07:18:33;;;;;;;2.33;2.15;;;8.90;99.90;;;;;;4949362;29;20240;-74
2022/12/25 07:21:03;;;;;;;1.65;1.55;;;8.90;99.90;;;;;;4947651;29;20196;-72
2022/12/25 07:23:29;;;;;;;2.85;2.65;;;8.90;99.90;;;;;;4941220;28;20207;-72
2022/12/25 07:25:56;;;;;;;2.80;2.60;;;8.90;99.90;;;;;;4958182;29;20161;-72
2022/12/25 07:28:22;;;;;;;2.45;2.25;;;8.90;99.90;;;;;;4958146;29;20597;-73
2022/12/25 07:30:48;;;;;;;3.07;2.77;;;8.90;99.90;;;;;;4958530;29;20176;-73
2022/12/25 07:33:13;;;;;;;2.80;2.20;;;9.00;99.90;;;;;;4958124;29;20512;-72
2022/12/25 07:35:39;;;;;;;2.80;2.23;;;8.90;99.90;;;;;;4958082;28;20193;-72
2022/12/25 07:38:05;;;;;;;2.27;2.10;;;8.90;99.90;;;;;;4958420;29;20173;-70
2022/12/25 07:40:30;;;;;;;2.60;2.20;;;8.90;99.90;;;;;;4951797;29;20177;-66
2022/12/25 07:42:56;;;;;;;4.33;2.70;;;8.90;99.90;;;;;;4938543;29;20209;-66
2022/12/25 07:45:21;;;;;;;2.27;2.07;;;8.90;99.90;;;;;;4940937;29;20253;-66
2022/12/25 07:47:47;;;;;;;4.10;2.53;;;8.90;99.90;;;;;;4958272;29;20583;-65
2022/12/25 07:50:12;;;;;;;2.70;2.50;;;8.90;99.90;;;;;;4954428;29;20189;-65
2022/12/25 07:52:38;;;;;;;2.70;2.50;;;8.90;99.90;;;;;;4945222;29;20639;-66
2022/12/25 07:55:04;;;;;;;2.30;2.20;;;9.00;99.90;;;;;;4957737;28;20200;-66
2022/12/25 07:57:30;;;;;;;4.97;2.50;;;8.90;99.90;;;;;;4957850;29;20181;-66
2022/12/25 07:59:55;;;;;;;4.60;2.63;;;8.90;99.90;;;;;;4958005;29;20435;-66
2022/12/25 08:02:27;;;;;;;2.57;2.37;;;8.90;99.90;;;;;;4957712;29;20205;-68
2022/12/25 08:04:53;;;;;;;3.65;3.05;;;8.90;99.90;;;;;;4957304;28;20212;-66
2022/12/25 08:07:19;;;;;;;2.97;2.75;;;9.00;99.90;;;;;;4957862;29;20177;-67
2022/12/25 08:09:44;;;;;;;2.77;2.23;;;8.90;99.90;;;;;;4957373;29;20200;-67
2022/12/25 08:12:10;;;;;;;2.40;2.20;;;8.90;99.90;;;;;;4957644;29;20185;-68
2022/12/25 08:14:36;;;;;;;3.00;2.30;;;8.90;99.90;;;;;;4957330;29;20650;-67
2022/12/25 08:17:01;;;;;;;2.97;2.63;;;8.90;99.90;;;;;;4957688;29;20223;-67
2022/12/25 08:19:28;;;;;;;2.13;1.93;;;8.90;99.90;;;;;;4957494;29;20428;-67
2022/12/25 08:21:53;;;;;;;3.28;2.88;;;9.00;99.90;;;;;;4956611;28;20212;-68
2022/12/25 08:24:19;;;;;;;2.47;2.27;;;9.10;99.90;;;;;;4957062;28;20215;-68
2022/12/25 08:26:45;;;;;;;2.95;2.65;;;9.20;99.90;;;;;;4957439;29;20723;-66
2022/12/25 08:29:10;;;;;;;4.90;2.53;;;9.20;99.90;;;;;;4957458;29;20264;-66
2022/12/25 08:31:36;;;;;;;2.93;2.73;;;9.30;99.90;;;;;;4954135;29;20579;-68
2022/12/25 08:34:03;;;;;;;7.83;3.63;;;9.40;99.90;;;;;;4956721;29;20555;-66
2022/12/25 08:36:29;;;;;;;2.65;2.45;;;9.60;99.90;;;;;;4956655;29;20216;-66
2022/12/25 08:38:54;;;;;;;4.23;3.00;;;9.70;99.90;;;;;;4957332;29;20215;-66
2022/12/25 08:41:20;;;;;;;3.27;3.07;;;10.10;99.90;;;;;;4957186;29;20786;-66
2022/12/25 08:43:46;;;;;;;3.83;3.53;;;10.30;99.90;;;;;;4953821;29;20739;-66
2022/12/25 08:46:12;;;;;;;3.50;3.10;;;10.60;99.90;;;;;;4941916;29;20183;-67
2022/12/25 08:48:41;;;;;;;2.83;2.47;;;10.80;99.90;;;;;;4947219;29;20217;-66
2022/12/25 08:51:10;;;;;;;3.23;2.30;;;11.00;99.90;;;;;;4941867;29;20425;-69
2022/12/25 08:53:36;;;;;;;2.03;1.93;;;11.20;99.90;;;;;;4941454;29;20838;-71
2022/12/25 08:56:05;;;;;;;3.20;3.00;;;11.30;99.90;;;;;;4941766;29;20447;-73
2022/12/25 08:58:31;;;;;;;2.00;1.90;;;11.60;99.90;;;;;;4939065;28;20211;-72
2022/12/25 09:00:57;;;;;;;3.30;2.80;;;11.80;99.90;;;;;;4937377;29;20413;-71
2022/12/25 09:03:23;;;;;;;2.53;2.33;;;12.10;99.90;;;;;;4940987;28;20181;-68
2022/12/25 09:05:49;;;;;;;2.03;1.93;;;12.20;99.90;;;;;;4935124;29;20188;-70
2022/12/25 09:08:15;;;;;;;2.60;2.37;;;12.30;99.90;;;;;;4936941;29;20445;-71
2022/12/25 09:10:41;;;;;;;3.00;2.70;;;12.30;99.90;;;;;;4937178;29;20436;-70
2022/12/25 09:13:07;;;;;;;2.33;2.13;;;12.30;99.90;;;;;;4930288;29;20191;-69
2022/12/25 09:15:33;;;;;;;4.40;1.70;;;12.80;99.90;;;;;;4937116;29;20772;-67
2022/12/25 09:17:58;;;;;;;1.83;1.73;;;13.20;99.90;;;;;;4942315;29;20413;-70
2022/12/25 09:20:24;;;;;;;2.17;2.00;;;13.70;99.90;;;;;;4937027;29;20584;-70
2022/12/25 09:22:49;;;;;;;1.93;1.83;;;14.20;99.90;;;;;;4936899;29;20267;-68
2022/12/25 09:25:15;;;;;;;2.23;2.07;;;14.70;99.90;;;;;;4947547;29;20218;-68
2022/12/25 09:27:42;;;;;;;2.53;1.93;;;15.20;99.90;;;;;;4955869;29;20179;-68
2022/12/25 09:30:08;;;;;;;2.00;1.90;;;15.60;99.90;;;;;;4949276;29;20256;-68
2022/12/25 09:32:34;;;;;;;1.97;1.73;;;16.20;99.90;;;;;;4943131;29;20435;-69
2022/12/25 09:35:00;;;;;;;2.27;2.07;;;16.70;99.90;;;;;;4955784;28;20793;-69
2022/12/25 09:37:25;;;;;;;1.97;1.87;;;17.20;99.90;;;;;;4955766;29;20524;-70
2022/12/25 09:39:51;;;;;;;2.63;2.43;;;17.50;99.90;;;;;;4956132;29;20573;-69
2022/12/25 09:42:23;;;;;;;2.07;1.97;;;17.90;99.90;;;;;;4956068;29;20255;-69
2022/12/25 09:45:12;;;;;;;2.67;2.47;;;18.10;99.90;;;;;;4955444;29;20272;-69
2022/12/25 09:47:41;;;;;;;1.83;1.73;;;18.10;99.90;;;;;;4955043;29;20863;-69
2022/12/25 09:50:30;;;;;;;4.17;2.77;;;18.30;99.90;;;;;;4955292;29;20510;-66
2022/12/25 09:52:56;;;;;;;2.40;2.20;;;18.50;99.90;;;;;;4955268;29;20894;-67
2022/12/25 09:55:27;;;;;;;2.20;2.00;;;18.70;99.90;;;;;;4954073;29;20454;-69
2022/12/25 09:57:59;;;;;;;4.77;2.23;;;19.10;99.90;;;;;;4955445;29;20505;-69
2022/12/25 10:00:32;;;;;;;1.73;1.60;;;19.50;99.90;;;;;;4955646;29;20787;-68
2022/12/25 10:03:37;;;;;;;2.47;2.27;;;20.00;99.90;;;;;;4955156;29;20498;-69
2022/12/25 10:06:16;;;;;;;2.50;2.07;;;20.50;99.90;;;;;;4936274;29;20849;-69
2022/12/25 10:09:19;;;;;;;1.87;1.77;;;21.00;99.90;;;;;;4936444;29;20428;-69
2022/12/25 10:11:56;;;;;;;2.20;1.80;;;21.20;99.90;;;;;;4936521;29;20459;-69
2022/12/25 10:14:27;;;;;;;1.73;1.63;;;21.30;99.90;;;;;;4935782;29;20427;-69
2022/12/25 10:17:12;;;;;;;1.90;1.80;;;21.40;99.90;;;;;;4942612;29;20421;-69
2022/12/25 10:19:55;;;;;;;1.53;1.43;;;21.40;99.90;;;;;;4955274;29;20424;-69
2022/12/25 10:22:43;;;;;;;1.57;1.50;;;21.30;99.90;;;;;;4955224;29;20437;-69
2022/12/25 10:25:18;;;;;;;1.57;1.47;;;21.10;99.90;;;;;;4955288;28;20422;-68
2022/12/25 10:27:48;;;;;;;1.87;1.73;;;20.90;99.90;;;;;;4955359;29;20379;-68
2022/12/25 10:30:19;;;;;;;3.10;2.00;;;20.90;99.90;;;;;;4922525;29;20413;-68
2022/12/25 10:32:46;;;;;;;2.57;2.37;;;20.90;99.90;;;;;;4954363;29;20948;-68
2022/12/25 10:35:14;;;;;;;2.90;2.70;;;20.80;99.90;;;;;;4954971;28;20440;-68
2022/12/25 10:37:42;;;;;;;2.37;2.27;;;20.50;99.90;;;;;;4955195;29;20421;-68
2022/12/25 10:40:46;;;;;;;2.20;2.10;;;20.50;99.90;;;;;;4955258;29;20894;-68
2022/12/25 10:43:17;;;;;;;1.80;1.70;;;20.40;99.90;;;;;;4920732;29;20406;-68
2022/12/25 10:45:48;;;;;;;1.80;1.70;;;20.10;99.90;;;;;;4954805;28;20436;-67
2022/12/25 10:48:25;;;;;;;1.40;1.30;;;19.80;99.90;;;;;;4955310;29;20440;-67
2022/12/25 10:50:51;;;;;;;1.97;1.80;;;19.40;99.90;;;;;;4955390;29;20426;-67
2022/12/25 10:53:22;;;;;;;1.67;1.53;;;19.00;99.90;;;;;;4954891;29;20474;-68
2022/12/25 10:55:54;;;;;;;3.10;2.50;;;18.60;99.90;;;;;;4937694;29;20412;-68
2022/12/25 10:58:20;;;;;;;2.50;2.30;;;18.30;99.90;;;;;;4953481;29;20422;-68
2022/12/25 11:00:53;;;;;;;2.20;1.93;;;18.20;99.90;;;;;;4955202;29;20405;-68
2022/12/25 11:03:22;;;;;;;2.50;2.30;;;18.00;99.90;;;;;;4954570;29;20436;-68
2022/12/25 11:05:53;;;;;;;1.90;1.70;;;17.90;99.90;;;;;;4954979;29;20440;-67
2022/12/25 11:08:21;;;;;;;2.10;1.93;;;17.90;99.90;;;;;;4955525;29;20416;-68
2022/12/25 11:10:58;;;;;;;1.90;1.80;;;17.80;99.90;;;;;;4955196;29;20416;-68
2022/12/25 11:13:26;;;;;;;3.67;2.47;;;17.50;99.90;;;;;;4956059;29;20400;-68
2022/12/25 11:16:13;;;;;;;2.73;2.50;;;17.10;99.90;;;;;;4956141;29;20416;-68
2022/12/25 11:18:51;;;;;;;2.43;2.23;;;16.60;99.90;;;;;;4954681;29;20507;-68
2022/12/25 11:21:22;;;;;;;4.07;2.40;;;16.30;99.90;;;;;;4954843;29;20456;-67
2022/12/25 11:23:55;;;;;;;2.40;2.20;;;16.00;99.90;;;;;;4954473;28;20795;-68
2022/12/25 11:26:21;;;;;;;3.00;2.70;;;15.80;99.90;;;;;;4955067;29;20724;-67
2022/12/25 11:28:49;;;;;;;3.40;2.33;;;15.60;99.90;;;;;;4954692;29;20413;-67
2022/12/25 11:31:18;;;;;;;2.60;2.40;;;15.40;99.90;;;;;;4954863;29;20225;-67
2022/12/25 11:33:55;;;;;;;2.97;2.50;;;15.30;99.90;;;;;;4954241;29;20454;-67
2022/12/25 11:36:30;;;;;;;2.13;1.97;;;15.10;99.90;;;;;;4954882;29;20842;-67
2022/12/25 11:39:20;;;;;;;2.67;2.03;;;15.10;99.90;;;;;;4954543;29;20409;-67
2022/12/25 11:41:47;;;;;;;2.27;2.07;;;15.10;99.90;;;;;;4954091;29;20440;-68
2022/12/25 11:44:33;;;;;;;1.90;1.80;;;15.20;99.90;;;;;;4954241;28;20456;-67
2022/12/25 11:47:07;;;;;;;1.30;1.30;;;15.20;99.90;;;;;;4921109;29;20961;-67
2022/12/25 11:49:38;;;;;;;1.40;1.40;;;15.20;99.90;;;;;;4955043;29;20892;-67
2022/12/25 11:52:06;;;;;;;2.13;1.83;;;15.20;99.90;;;;;;4954775;29;20513;-68
2022/12/25 11:54:45;;;;;;;1.50;1.40;;;15.20;99.90;;;;;;4954025;28;20956;-68
2022/12/25 11:57:12;;;;;;;1.43;1.40;;;15.30;99.90;;;;;;4955257;28;20403;-67
2022/12/25 11:59:51;;;;;;;2.53;1.60;;;15.30;99.90;;;;;;4957894;29;20457;-67
2022/12/25 12:02:28;;;;;;;1.90;1.57;;;15.40;99.90;;;;;;4957941;29;20477;-69
2022/12/25 12:05:20;;;;;;;4.73;2.40;;;15.50;99.90;;;;;;4957416;28;20456;-68
2022/12/25 12:08:01;;;;;;;1.77;1.67;;;15.60;99.90;;;;;;4953269;29;20468;-68
2022/12/25 12:10:51;;;;;;;3.63;2.03;;;15.60;99.90;;;;;;4957700;29;20415;-68
2022/12/25 12:13:16;;;;;;;1.70;1.60;;;15.60;99.90;;;;;;4957567;29;20508;-68
2022/12/25 12:15:47;;;;;;;1.60;1.27;;;15.60;99.90;;;;;;4956369;28;21057;-68
2022/12/25 12:18:28;;;;;;;1.60;1.50;;;15.60;99.90;;;;;;4957866;29;20183;-67
2022/12/25 12:21:19;;;;;;;1.67;1.37;;;15.70;99.90;;;;;;4957708;29;20941;-66
2022/12/25 12:23:53;;;;;;;1.10;1.10;;;15.60;99.90;;;;;;4957233;28;20409;-66
2022/12/25 12:26:27;;;;;;;2.17;1.50;;;15.50;99.90;;;;;;4956810;29;20481;-68
2022/12/25 12:28:59;;;;;;;1.43;1.33;;;15.50;99.90;;;;;;4957134;29;20412;-67
2022/12/25 12:31:37;;;;;;;1.53;1.43;;;15.50;99.90;;;;;;4957504;29;20474;-67
2022/12/25 12:34:03;;;;;;;2.70;1.60;;;15.60;99.90;;;;;;4943115;29;20977;-66
2022/12/25 12:36:29;;;;;;;1.13;1.10;;;15.60;99.90;;;;;;4957306;29;20458;-67
2022/12/25 12:38:57;;;;;;;1.60;1.50;;;15.60;99.90;;;;;;4957135;29;20412;-68
2022/12/25 12:41:43;;;;;;;1.03;1.03;;;15.60;99.90;;;;;;4954508;29;20472;-68
2022/12/25 12:44:10;;;;;;;1.40;1.30;;;15.60;99.90;;;;;;4942153;29;20482;-68
2022/12/25 12:46:38;;;;;;;1.53;1.43;;;15.50;99.90;;;;;;4957052;29;20407;-74
2022/12/25 12:49:20;;;;;;;1.97;1.53;;;15.40;99.90;;;;;;4941772;29;20436;-74
2022/12/25 12:51:45;;;;;;;1.80;1.70;;;15.30;99.90;;;;;;4952384;29;20507;-73
2022/12/25 12:54:23;;;;;;;1.93;1.70;;;15.30;99.90;;;;;;4949555;28;20536;-73
2022/12/25 12:56:56;;;;;;;1.20;1.20;;;15.30;99.90;;;;;;4955721;29;20173;-73
2022/12/25 12:59:23;;;;;;;1.53;1.37;;;15.40;99.90;;;;;;4951416;29;20441;-69
2022/12/25 13:02:07;;;;;;;1.20;1.10;;;15.40;99.90;;;;;;4939740;29;20451;-68
2022/12/25 13:04:45;;;;;;;1.30;1.13;;;15.40;99.90;;;;;;4956054;29;20437;-73
2022/12/25 13:07:26;;;;;;;1.90;1.77;;;15.50;99.90;;;;;;4955291;29;20476;-72
2022/12/25 13:10:16;;;;;;;2.03;1.67;;;15.50;99.90;;;;;;4955092;28;20913;-65
2022/12/25 13:12:42;;;;;;;1.40;1.30;;;15.40;99.90;;;;;;4945863;29;20424;-69
2022/12/25 13:15:12;;;;;;;2.37;1.83;;;15.40;99.90;;;;;;4956416;29;20972;-69
2022/12/25 13:17:41;;;;;;;2.53;2.33;;;15.40;99.90;;;;;;4956336;29;20188;-67
2022/12/25 13:20:32;;;;;;;1.87;1.70;;;15.30;99.90;;;;;;4956351;29;20492;-71
2022/12/25 13:22:58;;;;;;;1.70;1.60;;;15.40;99.90;;;;;;4956062;29;20448;-70
2022/12/25 13:25:23;;;;;;;2.20;2.00;;;15.30;99.90;;;;;;4955848;29;21001;-70
2022/12/25 13:27:56;;;;;;;2.60;1.40;;;15.30;99.90;;;;;;4938316;29;20200;-63
2022/12/25 13:30:23;;;;;;;1.77;1.60;;;15.30;99.90;;;;;;4949433;29;20217;-67
2022/12/25 13:32:49;;;;;;;1.50;1.40;;;15.30;99.90;;;;;;4939653;29;20487;-65
2022/12/25 13:35:22;;;;;;;2.30;1.37;;;15.30;99.90;;;;;;4955979;28;20432;-68
2022/12/25 13:37:48;;;;;;;1.40;1.30;;;15.30;99.90;;;;;;4948589;29;20181;-65
2022/12/25 13:40:24;;;;;;;1.60;1.50;;;15.30;99.90;;;;;;4939245;29;20462;-68
2022/12/25 13:42:58;;;;;;;1.50;1.40;;;15.30;99.90;;;;;;4936594;29;20549;-69
2022/12/25 13:45:26;;;;;;;1.90;1.47;;;15.30;99.90;;;;;;4945161;29;20502;-71
2022/12/25 13:47:53;;;;;;;1.00;1.00;;;15.30;99.90;;;;;;4935580;29;20411;-71
2022/12/25 13:50:23;;;;;;;1.20;1.17;;;15.30;99.90;;;;;;4936660;29;20403;-67
2022/12/25 13:52:49;;;;;;;1.43;1.30;;;15.30;99.90;;;;;;4944556;29;20779;-66
2022/12/25 13:55:18;;;;;;;1.17;1.10;;;15.30;99.90;;;;;;4942791;29;20441;-68
2022/12/25 13:57:50;;;;;;;1.53;1.47;;;15.30;99.90;;;;;;4953547;29;20420;-66
2022/12/25 14:00:19;;;;;;;1.33;1.23;;;15.30;99.90;;;;;;4939306;29;20420;-66
2022/12/25 14:02:45;;;;;;;1.43;1.33;;;15.30;99.90;;;;;;4943456;29;20461;-65
2022/12/25 14:05:24;;;;;;;1.47;1.27;;;15.20;99.90;;;;;;4936391;29;20457;-68
2022/12/25 14:07:52;;;;;;;1.47;1.30;;;15.20;99.90;;;;;;4936533;29;20477;-66
2022/12/25 14:10:19;;;;;;;1.60;1.50;;;15.20;99.90;;;;;;4948359;29;20426;-65
2022/12/25 14:12:48;;;;;;;1.50;1.40;;;15.10;99.90;;;;;;4955170;29;20483;-70
2022/12/25 14:15:20;;;;;;;1.67;1.57;;;15.10;99.90;;;;;;4948725;28;20504;-66
2022/12/25 14:17:48;;;;;;;1.07;1.07;;;15.10;99.90;;;;;;4929896;29;20506;-67
2022/12/25 14:20:28;;;;;;;1.97;1.87;;;15.10;99.90;;;;;;4951037;28;20436;-66
2022/12/25 14:22:56;;;;;;;2.20;1.50;;;15.10;99.90;;;;;;4942712;29;20546;-67
2022/12/25 14:25:31;;;;;;;2.67;2.10;;;15.10;99.90;;;;;;4954876;29;20452;-66
2022/12/25 14:27:56;;;;;;;2.50;1.73;;;15.00;99.90;;;;;;4936340;29;20513;-66
2022/12/25 14:30:27;;;;;;;1.83;1.73;;;15.00;99.90;;;;;;4935925;29;20500;-70
2022/12/25 14:32:54;;;;;;;1.47;1.37;;;15.00;99.90;;;;;;4946407;29;20231;-67
2022/12/25 14:35:22;;;;;;;1.60;1.50;;;15.00;99.90;;;;;;4954474;29;20803;-68
2022/12/25 14:37:55;;;;;;;1.63;1.53;;;14.90;99.90;;;;;;4953609;29;20436;-69
2022/12/25 14:40:29;;;;;;;2.43;2.30;;;14.90;99.90;;;;;;4955219;29;20428;-72
2022/12/25 14:43:04;;;;;;;1.73;1.60;;;14.80;99.90;;;;;;4955956;29;20586;-68
2022/12/25 14:45:31;;;;;;;1.80;1.70;;;14.80;99.90;;;;;;4954068;29;20435;-71
2022/12/25 14:48:01;;;;;;;1.40;1.30;;;14.70;99.90;;;;;;4957412;29;20415;-66
2022/12/25 14:50:38;;;;;;;2.17;1.97;;;14.70;99.90;;;;;;4954908;29;20914;-70
2022/12/25 14:53:17;;;;;;;1.83;1.73;;;14.60;99.90;;;;;;4954592;29;20438;-67
2022/12/25 14:55:47;;;;;;;2.33;1.90;;;14.50;99.90;;;;;;4954449;28;20790;-69
2022/12/25 14:58:22;;;;;;;2.60;2.03;;;14.40;99.90;;;;;;4954658;29;20396;-67
2022/12/25 15:00:57;;;;;;;1.87;1.77;;;14.30;99.90;;;;;;4937274;29;20775;-69
2022/12/25 15:03:36;;;;;;;1.80;1.70;;;14.30;99.90;;;;;;4953898;29;20502;-72
2022/12/25 15:06:23;;;;;;;1.73;1.63;;;14.20;99.90;;;;;;4954568;29;20883;-67
2022/12/25 15:09:00;;;;;;;1.97;1.87;;;14.20;99.90;;;;;;4957256;29;20398;-65
2022/12/25 15:11:29;;;;;;;1.60;1.50;;;14.10;99.90;;;;;;4965813;28;20439;-66
2022/12/25 15:13:55;;;;;;;2.67;1.80;;;14.10;99.90;;;;;;4956818;29;20442;-68
2022/12/25 15:16:24;;;;;;;3.90;1.60;;;14.00;99.90;;;;;;4959426;29;20403;-66
2022/12/25 15:18:51;;;;;;;1.80;1.50;;;14.00;99.90;;;;;;4960378;28;20487;-68
2022/12/25 15:21:25;;;;;;;3.10;2.00;;;13.90;99.90;;;;;;4956922;29;20549;-67
2022/12/25 15:23:55;;;;;;;2.20;1.90;;;13.80;99.90;;;;;;4953708;28;20447;-70
2022/12/25 15:26:21;;;;;;;2.33;2.07;;;13.80;99.90;;;;;;4954148;29;20439;-66
2022/12/25 15:28:47;;;;;;;3.10;1.67;;;13.80;99.90;;;;;;4937799;29;20424;-68
2022/12/25 15:31:25;;;;;;;2.37;2.00;;;13.70;99.90;;;;;;4935845;29;20855;-68
2022/12/25 15:33:52;;;;;;;2.43;2.00;;;13.60;99.90;;;;;;4943588;28;20222;-70
2022/12/25 15:36:17;;;;;;;1.47;1.47;;;13.60;99.90;;;;;;4956884;29;20481;-71
2022/12/25 15:38:43;;;;;;;1.37;1.30;;;13.50;99.90;;;;;;4957704;29;20427;-70
2022/12/25 15:42:09;;;;;;;1.60;1.50;;;13.50;99.90;;;;;;4939941;29;20184;-69
2022/12/25 15:44:01;;;;;;;2.10;1.80;;;13.60;99.90;;;;;;4957359;29;20944;-66
2022/12/25 15:46:26;;;;;;;1.17;1.13;;;13.70;99.90;;;;;;4957885;29;20423;-68
2022/12/25 15:48:52;;;;;;;1.70;1.60;;;13.70;99.90;;;;;;4957753;29;20474;-67
2022/12/25 15:51:17;;;;;;;2.03;1.80;;;13.80;99.90;;;;;;4958055;29;20179;-69
2022/12/25 15:53:43;;;;;;;2.10;2.00;;;13.90;99.90;;;;;;4957694;29;20247;-70
2022/12/25 15:56:10;;;;;;;1.80;1.50;;;14.00;99.90;;;;;;4957337;29;20684;-68
2022/12/25 15:58:36;;;;;;;1.30;1.20;;;14.10;99.90;;;;;;4958272;29;20658;-70
2022/12/25 16:01:02;;;;;;;1.40;1.30;;;14.20;99.90;;;;;;4940671;29;20454;-71
2022/12/25 16:03:28;;;;;;;1.70;1.60;;;14.20;99.90;;;;;;4957492;29;20172;-69
2022/12/25 16:05:54;;;;;;;2.60;1.27;;;14.20;99.90;;;;;;4957377;29;20200;-66
2022/12/25 16:08:20;;;;;;;0.97;0.97;;;14.30;99.90;;;;;;4955186;29;20425;-66
2022/12/25 16:10:46;;;;;;;1.30;1.20;;;14.40;99.90;;;;;;4957596;29;20184;-68
2022/12/25 16:13:12;;;;;;;0.90;0.90;;;14.50;99.90;;;;;;4936919;29;20424;-68
2022/12/25 16:15:38;;;;;;;1.70;1.60;;;14.60;99.90;;;;;;4939278;29;20456;-69
2022/12/25 16:18:03;;;;;;;1.70;1.57;;;14.60;99.90;;;;;;4938218;29;20417;-68
2022/12/25 16:20:29;;;;;;;0.97;0.93;;;14.70;99.90;;;;;;4937695;29;20696;-67
2022/12/25 16:22:55;;;;;;;2.00;0.90;;;14.80;99.90;;;;;;4931610;29;20514;-66
2022/12/25 16:25:21;;;;;;;1.50;1.40;;;14.80;99.90;;;;;;4939077;29;20459;-69
2022/12/25 16:27:47;;;;;;;1.10;0.97;;;14.80;99.90;;;;;;4957309;29;20193;-67
2022/12/25 16:30:15;;;;;;;1.50;1.40;;;14.90;99.90;;;;;;4957522;29;20524;-67
2022/12/25 16:32:41;;;;;;;1.30;1.00;;;14.90;99.90;;;;;;4957007;29;20422;-68
2022/12/25 16:35:07;;;;;;;1.27;1.20;;;14.90;99.90;;;;;;4957336;28;20762;-68
2022/12/25 16:37:33;;;;;;;2.27;1.57;;;14.90;99.90;;;;;;4956773;29;20437;-67
2022/12/25 16:39:59;;;;;;;1.67;1.40;;;14.80;99.90;;;;;;4957754;29;20452;-68
2022/12/25 16:42:25;;;;;;;2.50;1.40;;;14.80;99.90;;;;;;4957350;28;20456;-69
2022/12/25 16:44:51;;;;;;;1.50;1.40;;;14.70;99.90;;;;;;4956491;28;20414;-67
2022/12/25 16:47:17;;;;;;;1.43;1.40;;;14.60;99.90;;;;;;4957116;29;20645;-69
2022/12/25 16:49:43;;;;;;;3.50;2.40;;;14.50;99.90;;;;;;4957215;29;20173;-68
2022/12/25 16:52:08;;;;;;;1.20;1.20;;;14.40;99.90;;;;;;4957114;29;20249;-69
2022/12/25 16:54:34;;;;;;;1.80;1.70;;;14.30;99.90;;;;;;4956665;29;20248;-71
2022/12/25 16:56:59;;;;;;;2.97;2.10;;;14.30;99.90;;;;;;4960489;29;20184;-70
2022/12/25 16:59:28;;;;;;;2.40;2.20;;;14.20;99.90;;;;;;4963813;29;20185;-71
2022/12/25 17:01:53;;;;;;;1.53;1.43;;;14.20;99.90;;;;;;4965887;29;20236;-70
2022/12/25 17:04:19;;;;;;;1.70;1.60;;;14.10;99.90;;;;;;4961435;28;20439;-68
2022/12/25 17:06:44;;;;;;;1.53;1.30;;;14.00;99.90;;;;;;4958427;29;20204;-67
2022/12/25 17:09:10;;;;;;;1.60;1.50;;;14.00;99.90;;;;;;4957031;29;20659;-67
2022/12/25 17:11:35;;;;;;;2.93;1.80;;;13.90;99.90;;;;;;4957897;29;20232;-67
2022/12/25 17:14:03;;;;;;;1.83;1.70;;;13.80;99.90;;;;;;4957453;29;20227;-66
2022/12/25 17:16:31;;;;;;;1.63;1.50;;;13.80;99.90;;;;;;4956718;29;20188;-70
2022/12/25 17:19:03;;;;;;;1.90;1.80;;;13.70;99.90;;;;;;4956572;29;20424;-70
2022/12/25 17:21:31;;;;;;;2.20;1.37;;;13.70;99.90;;;;;;4956671;29;20441;-71
2022/12/25 17:23:57;;;;;;;1.53;1.43;;;13.60;99.90;;;;;;4961134;29;20459;-71
2022/12/25 17:26:23;;;;;;;2.40;1.30;;;13.50;99.90;;;;;;4963911;29;20407;-66
2022/12/25 17:28:49;;;;;;;1.03;1.00;;;13.50;99.90;;;;;;4962745;29;20414;-68
2022/12/25 17:31:15;;;;;;;2.40;2.20;;;13.50;99.90;;;;;;4962428;29;20899;-64
2022/12/25 17:33:42;;;;;;;1.57;1.47;;;13.50;99.90;;;;;;4959016;28;20438;-65
2022/12/25 17:36:14;;;;;;;1.13;1.13;;;13.50;99.90;;;;;;4957039;29;20176;-67
2022/12/25 17:38:40;;;;;;;1.37;1.30;;;13.50;99.90;;;;;;4938305;29;20435;-69
2022/12/25 17:41:09;;;;;;;1.27;1.17;;;13.60;99.90;;;;;;4956409;29;20464;-70
2022/12/25 17:43:40;;;;;;;0.93;0.93;;;13.60;99.90;;;;;;4955902;29;20815;-72
2022/12/25 17:46:15;;;;;;;1.47;1.33;;;13.60;99.90;;;;;;4956056;29;20790;-68
2022/12/25 17:48:41;;;;;;;2.07;1.87;;;13.60;99.90;;;;;;4956335;29;20407;-70
2022/12/25 17:51:09;;;;;;;1.90;1.20;;;13.60;99.90;;;;;;4956855;29;20409;-73
2022/12/25 17:53:37;;;;;;;1.30;1.20;;;13.60;99.90;;;;;;4955892;29;20427;-71
2022/12/25 17:56:03;;;;;;;1.67;1.57;;;13.50;99.90;;;;;;4955341;28;20468;-67
2022/12/25 17:58:28;;;;;;;3.90;1.60;;;13.50;99.90;;;;;;4956047;29;20929;-70
2022/12/25 18:00:54;;;;;;;2.23;2.10;;;13.50;99.90;;;;;;4955467;29;20189;-68
2022/12/25 18:03:20;;;;;;;1.57;1.43;;;13.50;99.90;;;;;;4954226;29;20215;-69
2022/12/25 18:05:47;;;;;;;1.80;1.67;;;13.50;99.90;;;;;;4955213;29;20189;-66